FALW

Langebaanweg Airport

Airport
ICAO code
FALW
Summary
ICAO Region
AFI
ICAO Territory
Location

, Western Cape

Serving
Langebaanweg
Elevation
108 ft
Coordinates
32° 58' 8" S , 18° 9' 37" E
Metar
FALW 230000Z AUTO 22007KT //// // ////// 15/12 Q1009

Runways

Designator Length Width Surface Rops
7/25 1504 46 ASP No/No
16/34 1991 46 ASP No/No
02L/20R 2341 46 ASP No/No
02R/20L 2344 46 ASP No/No

Airport map

Aerial View

SKYbrary Partners:

Safety knowledge contributed by: